| Date | Time | Temp. (oF) | Dew Point (oF) | Rel. Hum. (%) | Press. (in.) | Wind Dir. | Wind Speed (mph) | Hourly Rainfall (in.) |
|
|---|---|---|---|---|---|---|---|---|---|
| 1 | 09/30 | 00:00 | 49 | 37 | 65 | 30.11 | WNW | 0 | 0.00 |
| 2 | 09/29 | 23:00 | 53 | 38 | 57 | 30.11 | W | 0 | 0.00 |
| 3 | 09/29 | 22:00 | 56 | 38 | 52 | 30.10 | NW | 1 | 0.00 |
| 4 | 09/29 | 21:00 | 58 | 37 | 47 | 30.07 | W | 4 | 0.00 |
| 5 | 09/29 | 20:00 | 61 | 38 | 43 | 30.03 | NNW | 2 | 0.00 |
| 6 | 09/29 | 19:00 | 63 | 40 | 44 | 29.99 | WNW | 6 | 0.00 |
| 7 | 09/29 | 18:00 | 67 | 44 | 45 | 29.94 | W | 8 | 0.00 |
| 8 | 09/29 | 17:00 | 70 | 45 | 42 | 29.91 | NW | 10 | 0.00 |
| 9 | 09/29 | 16:00 | 71 | 47 | 44 | 29.90 | WSW | 11 | 0.00 |
| 10 | 09/29 | 15:00 | 71 | 49 | 46 | 29.89 | WNW | 10 | 0.00 |
| 11 | 09/29 | 14:00 | 69 | 54 | 60 | 29.89 | W | 8 | 0.00 |
| 12 | 09/29 | 13:00 | 67 | 59 | 76 | 29.89 | WNW | 7 | 0.00 |
| 13 | 09/29 | 12:00 | 62 | 61 | 97 | 29.90 | SSW | 2 | 0.00 |
| 14 | 09/29 | 11:00 | 63 | 60 | 93 | 29.89 | SW | 7 | 0.08 |
| 15 | 09/29 | 10:00 | 67 | 64 | 93 | 29.87 | SW | 2 | 0.00 |
| 16 | 09/29 | 09:00 | 69 | 63 | 82 | 29.79 | SSW | 12 | 0.00 |
| 17 | 09/29 | 08:00 | 68 | 63 | 87 | 29.81 | SE | 11 | 0.00 |
| 18 | 09/29 | 07:00 | 65 | 63 | 96 | 29.83 | S | 3 | 0.00 |
| 19 | 09/29 | 06:00 | 64 | 63 | 99 | 29.85 | S | 7 | 0.00 |
| 20 | 09/29 | 05:00 | 64 | 63 | 100 | 29.89 | SE | 7 | 0.00 |
| 21 | 09/29 | 04:00 | 64 | 63 | 99 | 29.94 | SE | 6 | 0.00 |
| 22 | 09/29 | 03:00 | 64 | 63 | 97 | 29.96 | SE | 10 | 0.00 |
| 23 | 09/29 | 02:00 | 64 | 62 | 94 | 30.00 | SSW | 6 | 0.00 |
| 24 | 09/29 | 01:00 | 64 | 61 | 93 | 30.02 | S | 3 | 0.00 |